Terminal Aerodrome Forecast
Issued by NWS

Home | Current Version | Previous Version | Text Only | Print | Product List | Glossary On
Versions: 1 2 3 4 5 6 7 8 9 10 11 12 13 14 15 16
000
FTUS43 KDTX 041120
TAFDET
TAF
KDET 041120Z 0412/0512 17006KT P6SM -SHRA SCT060 BKN090
     FM041400 18008KT P6SM SCT050 BKN080
     FM041800 14010KT P6SM SCT040 BKN060
     FM042100 12008KT 6SM -SHRA SCT028 BKN045 OVC100
     FM050200 03006KT P6SM BKN045
     FM050900 01008KT P6SM SCT060=

USA.gov is the U.S. government's official web portal to all federal, state and local government web resources and services.